Arthur Foss — WRB5693 — position and weather

sailwx.info

Track history (hours):
 
Tides and Currents Weather Stations Pressure Air Temp Water Temp Dewpoint Dewpoint Depression Visibility Wind Speed Wind Dir Waves Ship Positions

Arthur Foss

Owner: FOSS MARITIME COMPANY, SEATTLE, WA. More information available from US FCC via Universal Licensing System and Coast Guard Vessel Documentation Center.

Last reported at 2017-Oct-22 12:52 UTC. Time now 2017-Oct-22 15:29 UTC.
Position N 33°54' W 118°27'.

Length 30 m; draft 5.3 m.

Type: Tug. MMSI: 366979360.

Date/timePositionNaut miles runAvg speedWind from/ knotsBaromVisibWave heightAir tempDewpointWater temp
2017-Oct-22 12:52N 33°54' W 118°27'  
2017-Oct-16 21:49N 33°53' W 118°27'4 0.1
2017-Oct-15 02:51N 33°51' W 118°24'0 0.0
2017-Oct-14 20:42N 33°51' W 118°24'0 0.0
2017-Oct-14 20:15N 33°51' W 118°24'0 0.1
2017-Oct-14 20:00N 33°51' W 118°24'4 8.4
2017-Oct-14 19:30N 33°47' W 118°27'4 8.4
2017-Oct-14 19:00N 33°43' W 118°24'5 9.2
2017-Oct-14 18:30N 33°42' W 118°19'4 8.5
2017-Oct-14 17:59N 33°44' W 118°14'2 4.3
2017-Oct-14 17:30N 33°46' W 118°13'1 0.8
2017-Oct-14 16:42N 33°46' W 118°13'0 0.0
2017-Oct-14 16:24N 33°46' W 118°13'0 0.0
2017-Oct-14 15:48N 33°46' W 118°13'0 0.0
2017-Oct-14 04:54N 33°46' W 118°13'2 4.2
2017-Oct-14 04:30N 33°46' W 118°15'1 1.9
2017-Oct-14 04:01N 33°46' W 118°16'1 2.9
2017-Oct-14 03:30N 33°44' W 118°17'2 4.8
2017-Oct-14 03:00N 33°43' W 118°14'1 1.2
2017-Oct-14 02:25N 33°44' W 118°14'0 0.0
2017-Oct-14 01:49N 33°44' W 118°14'0 0.0
2017-Oct-14 01:25N 33°44' W 118°14'0 0.0
2017-Oct-14 00:58N 33°44' W 118°14'0 0.0
2017-Oct-14 00:28N 33°44' W 118°14'0 0.0
2017-Oct-13 23:55N 33°44' W 118°14'0 0.0
2017-Oct-13 23:25N 33°44' W 118°14'0 0.0
2017-Oct-13 22:58N 33°44' W 118°14'0 0.0
2017-Oct-13 22:25N 33°44' W 118°14'0 0.0
2017-Oct-13 21:59N 33°44' W 118°14'2 5.0
2017-Oct-13 21:30N 33°46' W 118°13'0 0.7
2017-Oct-13 20:46N 33°46' W 118°13'0 0.0
2017-Oct-13 20:22N 33°46' W 118°13'0 0.0
2017-Oct-13 19:46N 33°46' W 118°13'0 0.0
2017-Oct-13 19:28N 33°46' W 118°13'0 0.0
2017-Oct-13 18:58N 33°46' W 118°13'0 0.0
2017-Oct-13 18:28N 33°46' W 118°13'0 0.0
2017-Oct-13 17:52N 33°46' W 118°13'0 0.0
2017-Oct-13 17:28N 33°46' W 118°13'0 0.1
2017-Oct-13 17:00N 33°46' W 118°13'1 1.4
2017-Oct-13 16:30N 33°46' W 118°13'3 5.8
2017-Oct-13 16:00N 33°43' W 118°15'2 4.9
2017-Oct-13 15:31N 33°45' W 118°17'1 2.3
2017-Oct-13 14:53N 33°46' W 118°16'0 0.0
2017-Oct-13 14:29N 33°46' W 118°16'0 0.0
2017-Oct-13 13:59N 33°46' W 118°16'0 0.0
2017-Oct-13 13:29N 33°46' W 118°16'0 0.0
2017-Oct-13 12:53N 33°46' W 118°16'0 0.0
2017-Oct-13 12:23N 33°46' W 118°16'0 0.0
2017-Oct-13 11:56N 33°46' W 118°16'0 0.0
2017-Oct-13 11:23N 33°46' W 118°16'0 0.1
2017-Oct-13 10:54N 33°46' W 118°16'0 1.0
2017-Oct-13 10:30N 33°45' W 118°16'2 4.2
2017-Oct-13 10:00N 33°46' W 118°13'0 0.1
2017-Oct-13 01:27N 33°46' W 118°13'2 3.6
2017-Oct-13 01:00N 33°45' W 118°13'4 8.6
2017-Oct-13 00:30N 33°41' W 118°16'4 8.7
2017-Oct-13 00:00N 33°41' W 118°22'5 9.0
2017-Oct-12 23:30N 33°44' W 118°26'  
Track history (hours):
 
Tides and Currents Weather Stations Pressure Air Temp Water Temp Dewpoint Dewpoint Depression Visibility Wind Speed Wind Dir Waves Ship Positions

Arthur Foss

Owner: FOSS MARITIME COMPANY, SEATTLE, WA. More information available from US FCC via Universal Licensing System and Coast Guard Vessel Documentation Center.

Last reported at 2017-Oct-22 12:52 UTC. Time now 2017-Oct-22 15:29 UTC.
Position N 33°54' W 118°27'.

Length 30 m; draft 5.3 m.

Type: Tug. MMSI: 366979360.

Date/timePositionNaut miles runAvg speedWind from/ knotsBaromVisibWave heightAir tempDewpointWater temp
2017-Oct-22 12:52N 33°54' W 118°27'  
2017-Oct-16 21:49N 33°53' W 118°27'4 0.1
2017-Oct-15 02:51N 33°51' W 118°24'0 0.0
2017-Oct-14 20:42N 33°51' W 118°24'0 0.0
2017-Oct-14 20:15N 33°51' W 118°24'0 0.1
2017-Oct-14 20:00N 33°51' W 118°24'4 8.4
2017-Oct-14 19:30N 33°47' W 118°27'4 8.4
2017-Oct-14 19:00N 33°43' W 118°24'5 9.2
2017-Oct-14 18:30N 33°42' W 118°19'4 8.5
2017-Oct-14 17:59N 33°44' W 118°14'2 4.3
2017-Oct-14 17:30N 33°46' W 118°13'1 0.8
2017-Oct-14 16:42N 33°46' W 118°13'0 0.0
2017-Oct-14 16:24N 33°46' W 118°13'0 0.0
2017-Oct-14 15:48N 33°46' W 118°13'0 0.0
2017-Oct-14 04:54N 33°46' W 118°13'2 4.2
2017-Oct-14 04:30N 33°46' W 118°15'1 1.9
2017-Oct-14 04:01N 33°46' W 118°16'1 2.9
2017-Oct-14 03:30N 33°44' W 118°17'2 4.8
2017-Oct-14 03:00N 33°43' W 118°14'1 1.2
2017-Oct-14 02:25N 33°44' W 118°14'0 0.0
2017-Oct-14 01:49N 33°44' W 118°14'0 0.0
2017-Oct-14 01:25N 33°44' W 118°14'0 0.0
2017-Oct-14 00:58N 33°44' W 118°14'0 0.0
2017-Oct-14 00:28N 33°44' W 118°14'0 0.0
2017-Oct-13 23:55N 33°44' W 118°14'0 0.0
2017-Oct-13 23:25N 33°44' W 118°14'0 0.0
2017-Oct-13 22:58N 33°44' W 118°14'0 0.0
2017-Oct-13 22:25N 33°44' W 118°14'0 0.0
2017-Oct-13 21:59N 33°44' W 118°14'2 5.0
2017-Oct-13 21:30N 33°46' W 118°13'0 0.7
2017-Oct-13 20:46N 33°46' W 118°13'0 0.0
2017-Oct-13 20:22N 33°46' W 118°13'0 0.0
2017-Oct-13 19:46N 33°46' W 118°13'0 0.0
2017-Oct-13 19:28N 33°46' W 118°13'0 0.0
2017-Oct-13 18:58N 33°46' W 118°13'0 0.0
2017-Oct-13 18:28N 33°46' W 118°13'0 0.0
2017-Oct-13 17:52N 33°46' W 118°13'0 0.0
2017-Oct-13 17:28N 33°46' W 118°13'0 0.1
2017-Oct-13 17:00N 33°46' W 118°13'1 1.4
2017-Oct-13 16:30N 33°46' W 118°13'3 5.8
2017-Oct-13 16:00N 33°43' W 118°15'2 4.9
2017-Oct-13 15:31N 33°45' W 118°17'1 2.3
2017-Oct-13 14:53N 33°46' W 118°16'0 0.0
2017-Oct-13 14:29N 33°46' W 118°16'0 0.0
2017-Oct-13 13:59N 33°46' W 118°16'0 0.0
2017-Oct-13 13:29N 33°46' W 118°16'0 0.0
2017-Oct-13 12:53N 33°46' W 118°16'0 0.0
2017-Oct-13 12:23N 33°46' W 118°16'0 0.0
2017-Oct-13 11:56N 33°46' W 118°16'0 0.0
2017-Oct-13 11:23N 33°46' W 118°16'0 0.1
2017-Oct-13 10:54N 33°46' W 118°16'0 1.0
2017-Oct-13 10:30N 33°45' W 118°16'2 4.2
2017-Oct-13 10:00N 33°46' W 118°13'0 0.1
2017-Oct-13 01:27N 33°46' W 118°13'2 3.6
2017-Oct-13 01:00N 33°45' W 118°13'4 8.6
2017-Oct-13 00:30N 33°41' W 118°16'4 8.7
2017-Oct-13 00:00N 33°41' W 118°22'5 9.0
2017-Oct-12 23:30N 33°44' W 118°26'  

Dump ship's entire track history